Airport details for: LZSL (Slovak Republic)

Metar

LZSL 301030Z VRB03KT 9999 SCT040 15/00 Q1019

General details

ICAO: LZSL
IATA: SLD
Name (city): Sliac
Major:
Country: Slovak Republic
vACC: vACC Slovakia
Description:

Sliač Airport or, historically, Letisko Tri Duby (literally, "The Three Oaks Airport") is an international airport in central Slovakia situated between the towns of Zvolen and Banská Bystrica and near the spa town of Sliač. The airport has one runway which is 2,400 m long (18/ 36). The airport is used by the military as well as commercially for civilian flights. (wiki)

Scenery links:
FS9 scenery: Download
FSX/P3D scenery: Download
XP scenery:
Elevation: 1044 ft.
Transition altitude: 8000 ft.
MSA: 7800 ft.
Latitude: 48.638056
Longitude: 19.134167
LZSL Charts
LZSL Notams
LZSL Online stations

Runways

Number Course Length Elevation Lat Lon ILS ILS freq ILS FAC GP
18 178° 7874ft / 2400 m 1044ft 48.64887 19.134672 - - 3.0°
36 358° 7874ft / 2400 m 1014ft 48.627295 19.133569 108.7 358° 3.5°